This is the latest recevied weather packets stored in our database for station/object IZ1HMT-3. If no packets are shown the sender has not sent any weather packets the latest 10 day(s).
| Time | Temp. | Humidity | Pressure | Rain* | Wind** | Luminosity | Snow |
|---|---|---|---|---|---|---|---|
| 1788617064 | 32.22° C | 50% | 1018.8 hPa | - | - | - | - |
| 1788615251 | 33.89° C | 46% | 1018.8 hPa | - | - | - | - |
| 1788614647 | 32.22° C | 49% | 1018.9 hPa | - | - | - | - |
| 1788613439 | 31.67° C | 51% | 1018.9 hPa | - | - | - | - |
| 1788612835 | 31.67° C | 51% | 1019 hPa | - | - | - | - |
| 1788612230 | 32.78° C | 48% | 1018.9 hPa | - | - | - | - |
| 1788611021 | 33.33° C | 47% | 1019 hPa | - | - | - | - |
| 1788610418 | 32.22° C | 50% | 1019.3 hPa | - | - | - | - |
| 1788609813 | 31.67° C | 51% | 1019.1 hPa | - | - | - | - |
| 1788606187 | 32.22° C | 51% | 1019.2 hPa | - | - | - | - |
| 1788604979 | 32.22° C | 50% | 1019.2 hPa | - | - | - | - |
| 1788604382 | 32.78° C | 50% | 1019.1 hPa | - | - | - | - |
| 1788603771 | 32.22° C | 52% | 1019.3 hPa | - | - | - | - |
| 1788603171 | 30° C | 58% | 1019.3 hPa | - | - | - | - |
| 1788582896 | 28.33° C | 63% | 1017.8 hPa | - | - | - | - |
| 1788581688 | 28.33° C | 63% | 1017.7 hPa | - | - | - | - |
| 1788581084 | 28.33° C | 63% | 1017.8 hPa | - | - | - | - |
| 1788580481 | 28.33° C | 62% | 1018 hPa | - | - | - | - |
| 1788579906 | 28.33° C | 62% | 1017.9 hPa | - | - | - | - |
| 1788579273 | 28.33° C | 62% | 1017.9 hPa | - | - | - | - |
| 1788578670 | 28.33° C | 62% | 1017.9 hPa | - | - | - | - |
| 1788577462 | 28.33° C | 62% | 1018 hPa | - | - | - | - |
| 1788576859 | 28.33° C | 62% | 1017.9 hPa | - | - | - | - |
| 1788576255 | 28.33° C | 62% | 1018 hPa | - | - | - | - |
| 1788575048 | 27.78° C | 62% | 1018.1 hPa | - | - | - | - |
* Rain since midnight (hover to see other rain measurements)
** Current wind speed in m/s (hover to see current wind gust speed)